createdAt,value
2019-06-15T00:00:05.773Z,60.40
2019-06-15T00:01:08.649Z,60.40
2019-06-15T00:02:05.847Z,60.40
2019-06-15T00:03:10.088Z,60.50
2019-06-15T00:04:10.197Z,60.60
2019-06-15T00:05:05.446Z,60.70
2019-06-15T00:06:05.702Z,60.50
2019-06-15T00:07:05.919Z,60.50
2019-06-15T00:08:05.479Z,60.50
2019-06-15T00:09:08.446Z,60.40
2019-06-15T00:10:08.102Z,60.50
2019-06-15T00:11:05.222Z,60.50
2019-06-15T00:12:05.630Z,60.90
2019-06-15T00:13:08.476Z,60.90
2019-06-15T00:14:08.248Z,60.90
2019-06-15T00:15:05.489Z,60.90
2019-06-15T00:16:05.728Z,61.00
2019-06-15T00:17:05.126Z,60.80
2019-06-15T00:18:08.114Z,60.90
2019-06-15T00:19:07.859Z,60.80
2019-06-15T00:20:08.749Z,60.90
2019-06-15T00:21:05.810Z,61.00
2019-06-15T00:22:05.674Z,61.00
2019-06-15T00:23:05.746Z,61.20
2019-06-15T00:24:05.655Z,61.60
2019-06-15T00:25:05.911Z,61.50
2019-06-15T00:26:07.645Z,62.30
2019-06-15T00:27:08.501Z,62.00
2019-06-15T00:28:05.855Z,62.00
2019-06-15T00:29:05.230Z,62.00
2019-06-15T00:30:07.997Z,62.20
2019-06-15T00:31:05.050Z,62.10
2019-06-15T00:32:07.981Z,61.90
2019-06-15T00:33:06.000Z,61.90
2019-06-15T00:34:05.284Z,61.90
2019-06-15T00:35:05.477Z,61.80
2019-06-15T00:36:08.352Z,61.60
2019-06-15T00:37:05.591Z,61.60
2019-06-15T00:38:05.902Z,61.60
2019-06-15T00:39:10.182Z,61.20
2019-06-15T00:40:07.747Z,61.20
2019-06-15T00:41:05.916Z,61.20
2019-06-15T00:42:05.154Z,61.20
2019-06-15T00:43:05.648Z,61.00
2019-06-15T00:44:06.110Z,61.00
2019-06-15T00:45:05.628Z,60.90
2019-06-15T00:46:05.876Z,60.90
2019-06-15T00:47:07.807Z,60.70
2019-06-15T00:48:08.590Z,60.70
2019-06-15T00:49:05.647Z,60.70
2019-06-15T00:50:05.814Z,60.80
2019-06-15T00:51:08.690Z,60.80
2019-06-15T00:52:08.407Z,60.90
2019-06-15T00:53:05.594Z,60.90
2019-06-15T00:54:08.483Z,61.40
2019-06-15T00:55:08.283Z,61.40
2019-06-15T00:56:08.097Z,61.60
2019-06-15T00:57:07.615Z,61.70
2019-06-15T00:58:05.703Z,61.70
2019-06-15T00:59:05.969Z,61.70
2019-06-15T01:00:05.372Z,61.70
2019-06-15T01:01:08.355Z,61.90
2019-06-15T01:02:08.071Z,62.00
2019-06-15T01:03:07.840Z,61.90
2019-06-15T01:04:08.353Z,62.30
2019-06-15T01:05:08.040Z,62.40
2019-06-15T01:06:07.808Z,62.50
2019-06-15T01:07:08.582Z,62.70
2019-06-15T01:08:05.766Z,62.70
2019-06-15T01:09:08.581Z,63.40
2019-06-15T01:10:05.699Z,62.90
2019-06-15T01:11:05.919Z,62.90
2019-06-15T01:12:05.154Z,62.80
2019-06-15T01:13:07.853Z,63.00
2019-06-15T01:14:05.950Z,62.90
2019-06-15T01:15:07.643Z,63.00
2019-06-15T01:16:05.979Z,63.00
2019-06-15T01:17:05.252Z,63.00
2019-06-15T01:18:05.511Z,63.10
2019-06-15T01:19:05.913Z,63.10
2019-06-15T01:20:07.660Z,63.40
2019-06-15T01:21:05.796Z,63.40
2019-06-15T01:22:06.033Z,63.40
2019-06-15T01:23:07.978Z,63.40
2019-06-15T01:24:04.999Z,63.40
2019-06-15T01:25:06.277Z,63.40
2019-06-15T01:26:05.699Z,63.40
2019-06-15T01:27:06.185Z,63.40
2019-06-15T01:28:05.434Z,63.70
2019-06-15T01:29:08.296Z,63.70
2019-06-15T01:30:05.542Z,63.70
2019-06-15T01:31:08.437Z,63.80
2019-06-15T01:32:05.638Z,63.80
2019-06-15T01:33:08.414Z,63.80
2019-06-15T01:34:08.184Z,63.80
2019-06-15T01:35:07.770Z,63.90
2019-06-15T01:36:11.035Z,63.80
2019-06-15T01:37:05.103Z,63.80
2019-06-15T01:38:07.942Z,63.90
2019-06-15T01:39:06.139Z,63.90
2019-06-15T01:40:05.671Z,12.80
2019-06-15T01:41:06.043Z,64.10
2019-06-15T01:42:05.363Z,64.00
2019-06-15T01:43:08.102Z,64.10
2019-06-15T01:44:07.794Z,64.10
2019-06-15T01:45:05.989Z,64.30
2019-06-15T01:46:07.760Z,64.10
2019-06-15T01:47:05.895Z,64.10
2019-06-15T01:48:05.053Z,64.30
2019-06-15T01:49:07.891Z,64.20
2019-06-15T01:50:08.542Z,64.20
2019-06-15T01:51:05.650Z,64.20
2019-06-15T01:52:06.079Z,64.20
2019-06-15T01:53:05.345Z,64.20
2019-06-15T01:54:05.567Z,64.20
2019-06-15T01:55:21.290Z,64.30
2019-06-15T01:56:08.066Z,64.20
2019-06-15T01:57:07.628Z,64.10
2019-06-15T01:58:05.761Z,64.20
2019-06-15T01:59:05.942Z,64.30
2019-06-15T02:00:07.582Z,64.30
2019-06-15T02:01:08.426Z,64.60
2019-06-15T02:02:10.740Z,64.60
2019-06-15T02:03:05.985Z,64.40
2019-06-15T02:04:10.316Z,64.40
2019-06-15T02:05:05.471Z,64.40
2019-06-15T02:06:05.783Z,64.40
2019-06-15T02:07:08.724Z,64.40
2019-06-15T02:08:08.365Z,64.50
2019-06-15T02:09:05.560Z,64.50
2019-06-15T02:10:05.767Z,64.50
2019-06-15T02:11:08.546Z,64.50
2019-06-15T02:12:08.235Z,64.50
2019-06-15T02:13:07.773Z,64.50
2019-06-15T02:14:08.667Z,64.50
2019-06-15T02:15:08.307Z,64.40
2019-06-15T02:16:08.081Z,64.40
2019-06-15T02:17:07.870Z,64.30
2019-06-15T02:18:08.578Z,64.30
2019-06-15T02:19:08.195Z,64.30
2019-06-15T02:20:07.769Z,64.60
2019-06-15T02:21:06.023Z,64.60
2019-06-15T02:22:08.090Z,64.40
2019-06-15T02:23:05.216Z,64.40
2019-06-15T02:24:05.537Z,64.40
2019-06-15T02:25:05.808Z,64.50
2019-06-15T02:26:08.622Z,64.50
2019-06-15T02:27:05.776Z,64.40
2019-06-15T02:28:06.202Z,64.60
2019-06-15T02:29:07.975Z,64.60
2019-06-15T02:30:06.033Z,64.60
2019-06-15T02:31:05.323Z,64.70
2019-06-15T02:32:05.498Z,64.80
2019-06-15T02:33:05.989Z,64.80
2019-06-15T02:34:07.707Z,64.90
2019-06-15T02:35:08.327Z,65.00
2019-06-15T02:36:08.012Z,64.80
2019-06-15T02:37:05.047Z,64.80
2019-06-15T02:38:05.324Z,64.80
2019-06-15T02:39:05.677Z,65.20
2019-06-15T02:40:05.989Z,65.00
2019-06-15T02:41:07.888Z,65.10
2019-06-15T02:42:08.482Z,65.30
2019-06-15T02:43:08.136Z,65.70
2019-06-15T02:44:05.370Z,65.70
2019-06-15T02:45:07.877Z,65.70
2019-06-15T02:46:06.057Z,65.70
2019-06-15T02:47:05.269Z,65.60
2019-06-15T02:48:05.755Z,65.70
2019-06-15T02:49:06.036Z,65.90
2019-06-15T02:50:10.438Z,66.30
2019-06-15T02:51:05.597Z,66.30
2019-06-15T02:52:08.315Z,66.50
2019-06-15T02:53:05.541Z,66.50
2019-06-15T02:54:06.002Z,66.50
2019-06-15T02:55:07.792Z,67.20
2019-06-15T02:56:08.494Z,67.20
2019-06-15T02:57:05.611Z,67.20
2019-06-15T02:58:13.613Z,67.00
2019-06-15T02:59:05.920Z,67.00
2019-06-15T03:00:05.274Z,66.90
2019-06-15T03:01:05.723Z,67.10
2019-06-15T03:02:06.029Z,67.00
2019-06-15T03:03:05.332Z,66.90
2019-06-15T03:04:05.610Z,67.00
2019-06-15T03:05:08.496Z,67.10
2019-06-15T03:06:08.133Z,67.10
2019-06-15T03:07:07.975Z,66.90
2019-06-15T03:08:05.146Z,66.90
2019-06-15T03:09:06.058Z,67.00
2019-06-15T03:10:05.494Z,67.00
2019-06-15T03:11:07.630Z,67.30
2019-06-15T03:12:05.897Z,67.30
2019-06-15T03:13:05.204Z,67.30
2019-06-15T03:14:05.433Z,67.30
2019-06-15T03:15:08.275Z,67.30
2019-06-15T03:16:05.528Z,67.40
2019-06-15T03:17:05.410Z,67.40
2019-06-15T03:18:05.523Z,67.50
2019-06-15T03:19:08.476Z,67.40
2019-06-15T03:20:05.718Z,67.30
2019-06-15T03:21:06.267Z,67.60
2019-06-15T03:22:06.927Z,67.60
2019-06-15T03:23:05.124Z,67.60
2019-06-15T03:24:05.782Z,67.70
2019-06-15T03:25:05.602Z,68.20
2019-06-15T03:26:06.529Z,68.50
2019-06-15T03:27:08.670Z,68.20
2019-06-15T03:28:15.834Z,68.40
2019-06-15T03:29:11.239Z,68.40
2019-06-15T03:30:05.479Z,68.40
2019-06-15T03:31:05.781Z,68.30
2019-06-15T03:32:08.635Z,68.40
2019-06-15T03:33:10.951Z,68.70
2019-06-15T03:34:05.047Z,68.50
2019-06-15T03:35:08.021Z,68.50
2019-06-15T03:36:05.261Z,68.40
2019-06-15T03:37:05.959Z,68.60
2019-06-15T03:38:08.124Z,68.80
2019-06-15T03:39:05.406Z,68.80
2019-06-15T03:40:05.833Z,68.80
2019-06-15T03:41:06.367Z,68.90
2019-06-15T03:42:05.687Z,68.90
2019-06-15T03:43:08.448Z,69.10
2019-06-15T03:44:08.334Z,69.00
2019-06-15T03:45:05.263Z,69.10
2019-06-15T03:46:05.503Z,69.30
2019-06-15T03:47:06.068Z,69.50
2019-06-15T03:48:05.448Z,70.10
2019-06-15T03:49:10.871Z,70.00
2019-06-15T03:50:08.561Z,70.40
2019-06-15T03:51:08.262Z,71.20
2019-06-15T03:52:05.385Z,71.20
2019-06-15T03:53:08.280Z,71.90
2019-06-15T03:54:08.149Z,72.20
2019-06-15T03:55:07.772Z,72.00
2019-06-15T03:56:22.265Z,72.00
2019-06-15T03:57:08.225Z,71.90
2019-06-15T03:58:07.897Z,71.90
2019-06-15T03:59:05.936Z,72.00
2019-06-15T04:00:07.736Z,72.10
2019-06-15T04:01:06.040Z,72.10
2019-06-15T04:02:10.306Z,71.90
2019-06-15T04:03:10.523Z,72.00
2019-06-15T04:04:08.204Z,72.00
2019-06-15T04:05:08.230Z,72.00
2019-06-15T04:06:05.526Z,72.10
2019-06-15T04:07:11.032Z,72.10
2019-06-15T04:08:07.592Z,72.20
2019-06-15T04:09:05.670Z,72.20
2019-06-15T04:10:05.987Z,72.20
2019-06-15T04:11:05.422Z,72.00
2019-06-15T04:12:08.413Z,71.90
2019-06-15T04:13:05.759Z,71.90
2019-06-15T04:14:06.217Z,71.90
2019-06-15T04:15:08.074Z,71.80
2019-06-15T04:16:05.201Z,71.80
2019-06-15T04:17:05.469Z,72.50
2019-06-15T04:18:08.732Z,72.20
2019-06-15T04:19:11.092Z,72.20
2019-06-15T04:20:05.146Z,72.20
2019-06-15T04:21:08.389Z,71.80
2019-06-15T04:22:05.588Z,71.80
2019-06-15T04:23:08.647Z,71.80
2019-06-15T04:24:05.978Z,71.80
2019-06-15T04:25:08.404Z,71.60
2019-06-15T04:26:08.316Z,71.70
2019-06-15T04:27:05.398Z,20.50
2019-06-15T04:28:08.247Z,71.60
2019-06-15T04:29:07.794Z,71.40
2019-06-15T04:30:06.038Z,71.40
2019-06-15T04:31:05.278Z,71.40
2019-06-15T04:32:08.276Z,71.20
2019-06-15T04:33:05.513Z,71.20
2019-06-15T04:34:06.080Z,71.20
2019-06-15T04:35:05.354Z,71.20
2019-06-15T04:36:05.859Z,71.20
2019-06-15T04:37:05.384Z,71.20
2019-06-15T04:38:08.228Z,71.00
2019-06-15T04:39:05.248Z,71.00
2019-06-15T04:40:05.601Z,70.90
2019-06-15T04:41:06.086Z,70.90
2019-06-15T04:42:05.439Z,70.80
2019-06-15T04:43:05.888Z,71.00
2019-06-15T04:44:05.224Z,70.90
2019-06-15T04:45:05.603Z,71.00
2019-06-15T04:46:06.014Z,71.00
2019-06-15T04:47:07.817Z,71.00
2019-06-15T04:48:05.970Z,70.90
2019-06-15T04:49:07.634Z,70.90
2019-06-15T04:50:05.973Z,70.90
2019-06-15T04:51:05.323Z,70.90
2019-06-15T04:52:08.332Z,70.90
2019-06-15T04:53:07.866Z,71.00
2019-06-15T04:54:11.157Z,71.00
2019-06-15T04:55:05.384Z,71.00
2019-06-15T04:56:08.329Z,70.90
2019-06-15T04:57:10.540Z,70.90
2019-06-15T04:58:08.242Z,70.90
2019-06-15T04:59:05.542Z,70.90
2019-06-15T05:00:06.076Z,71.10
2019-06-15T05:01:05.418Z,71.10
2019-06-15T05:02:05.888Z,71.20
2019-06-15T05:03:07.659Z,71.10
2019-06-15T05:04:05.884Z,71.10
2019-06-15T05:05:10.655Z,71.20
2019-06-15T05:06:05.860Z,71.10
2019-06-15T05:07:08.758Z,71.20
2019-06-15T05:08:11.043Z,71.40
2019-06-15T05:09:07.614Z,71.40
2019-06-15T05:10:05.878Z,71.40
2019-06-15T05:11:05.356Z,71.40
2019-06-15T05:12:05.770Z,71.40
2019-06-15T05:13:06.022Z,71.40
2019-06-15T05:14:05.143Z,71.50
2019-06-15T05:15:10.657Z,71.50
2019-06-15T05:16:08.445Z,71.50
2019-06-15T05:17:08.197Z,71.60
2019-06-15T05:18:05.248Z,71.60
2019-06-15T05:19:07.967Z,71.60
2019-06-15T05:20:06.083Z,71.60
2019-06-15T05:21:05.367Z,71.50
2019-06-15T05:22:08.244Z,71.60
2019-06-15T05:23:05.289Z,71.60
2019-06-15T05:24:08.985Z,71.30
2019-06-15T05:25:05.158Z,71.30
2019-06-15T05:26:05.393Z,71.40
2019-06-15T05:27:06.895Z,71.40
2019-06-15T05:28:05.322Z,71.30
2019-06-15T05:29:05.554Z,71.60
2019-06-15T05:30:05.757Z,71.60
2019-06-15T05:31:05.984Z,71.50
2019-06-15T05:32:05.126Z,71.10
2019-06-15T05:33:05.363Z,71.30
2019-06-15T05:34:08.158Z,71.50
2019-06-15T05:35:05.245Z,71.50
2019-06-15T05:36:05.489Z,71.80
2019-06-15T05:37:08.355Z,72.20
2019-06-15T05:38:08.188Z,72.20
2019-06-15T05:39:08.049Z,72.40
2019-06-15T05:40:07.595Z,72.70
2019-06-15T05:41:10.774Z,73.00
2019-06-15T05:42:06.063Z,73.00
2019-06-15T05:43:07.835Z,73.50
2019-06-15T05:44:06.147Z,73.50
2019-06-15T05:45:08.135Z,72.90
2019-06-15T05:46:07.997Z,72.60
2019-06-15T05:47:07.687Z,71.90
2019-06-15T05:48:08.625Z,70.90
2019-06-15T05:49:08.598Z,70.40
2019-06-15T05:50:08.418Z,69.40
2019-06-15T05:51:05.663Z,69.30
2019-06-15T05:52:08.662Z,67.00
2019-06-15T05:53:10.982Z,66.10
2019-06-15T05:54:05.009Z,66.00
2019-06-15T05:55:07.998Z,62.60
2019-06-15T05:56:08.690Z,61.60
2019-06-15T05:57:21.970Z,61.60
2019-06-15T05:58:05.237Z,61.00
2019-06-15T05:59:05.545Z,60.10
2019-06-15T06:00:08.428Z,59.00
2019-06-15T06:01:10.457Z,59.00
2019-06-15T06:02:05.681Z,57.90
2019-06-15T06:03:05.967Z,57.00
2019-06-15T06:04:07.775Z,51.60
2019-06-15T06:05:08.554Z,52.20
2019-06-15T06:06:05.679Z,52.30
2019-06-15T06:07:08.532Z,52.60
2019-06-15T06:08:05.930Z,52.40
2019-06-15T06:09:07.947Z,50.10
2019-06-15T06:10:06.664Z,50.00
2019-06-15T06:11:06.087Z,50.50
2019-06-15T06:12:05.529Z,51.00
2019-06-15T06:13:09.749Z,50.50
2019-06-15T06:14:05.969Z,50.50
2019-06-15T06:15:05.111Z,49.90
2019-06-15T06:16:07.905Z,49.40
2019-06-15T06:17:06.178Z,49.40
2019-06-15T06:18:08.126Z,47.50
2019-06-15T06:19:05.258Z,47.50
2019-06-15T06:20:08.148Z,48.00
2019-06-15T06:21:07.747Z,47.70
2019-06-15T06:22:08.633Z,47.90
2019-06-15T06:23:08.317Z,47.30
2019-06-15T06:24:05.411Z,47.20
2019-06-15T06:25:05.184Z,47.50
2019-06-15T06:26:08.093Z,46.80
2019-06-15T06:27:05.235Z,46.90
2019-06-15T06:28:08.018Z,46.50
2019-06-15T06:29:05.209Z,46.50
2019-06-15T06:30:08.093Z,44.70
2019-06-15T06:31:05.144Z,44.70
2019-06-15T06:32:08.011Z,43.10
2019-06-15T06:33:05.297Z,43.10
2019-06-15T06:34:13.178Z,44.00
2019-06-15T06:35:05.238Z,44.00
2019-06-15T06:36:06.748Z,44.60
2019-06-15T06:37:08.665Z,43.30
2019-06-15T06:38:05.959Z,43.30
2019-06-15T06:39:05.398Z,43.50
2019-06-15T06:40:08.409Z,43.70
2019-06-15T06:41:05.518Z,43.70
2019-06-15T06:42:05.797Z,44.10
2019-06-15T06:43:08.760Z,43.40
2019-06-15T06:44:05.983Z,43.40
2019-06-15T06:45:08.384Z,43.90
2019-06-15T06:46:05.481Z,43.90
2019-06-15T06:47:08.395Z,44.60
2019-06-15T06:48:08.260Z,44.20
2019-06-15T06:49:05.558Z,44.20
2019-06-15T06:50:05.176Z,44.10
2019-06-15T06:51:08.022Z,43.70
2019-06-15T06:52:07.724Z,44.00
2019-06-15T06:53:05.894Z,44.00
2019-06-15T06:54:05.094Z,42.40
2019-06-15T06:55:07.922Z,41.20
2019-06-15T06:56:06.108Z,41.20
2019-06-15T06:57:10.566Z,41.40
2019-06-15T06:58:10.802Z,41.50
2019-06-15T06:59:11.160Z,41.40
2019-06-15T07:00:05.741Z,40.80
2019-06-15T07:01:06.110Z,41.10
2019-06-15T07:02:08.040Z,41.40
2019-06-15T07:03:07.662Z,41.80
2019-06-15T07:04:08.508Z,41.30
2019-06-15T07:05:08.164Z,41.60
2019-06-15T07:06:05.103Z,41.60
2019-06-15T07:07:08.498Z,41.60
2019-06-15T07:08:08.150Z,42.10
2019-06-15T07:09:10.363Z,42.20
2019-06-15T07:10:06.173Z,42.30
2019-06-15T07:11:05.434Z,41.40
2019-06-15T07:12:05.845Z,41.70
2019-06-15T07:13:15.321Z,40.90
2019-06-15T07:14:05.373Z,40.80
2019-06-15T07:15:08.192Z,40.80
2019-06-15T07:16:07.959Z,39.60
2019-06-15T07:17:08.744Z,39.00
2019-06-15T07:18:08.393Z,39.40
2019-06-15T07:19:05.421Z,39.40
2019-06-15T07:20:05.768Z,39.10
2019-06-15T07:21:08.549Z,37.30
2019-06-15T07:22:08.139Z,37.50
2019-06-15T07:23:05.279Z,37.50
2019-06-15T07:24:05.852Z,37.20
2019-06-15T07:25:07.831Z,36.40
2019-06-15T07:26:05.937Z,36.40
2019-06-15T07:27:07.698Z,34.70
2019-06-15T07:28:08.906Z,34.60
2019-06-15T07:29:05.110Z,34.00
2019-06-15T07:30:05.475Z,33.40
2019-06-15T07:31:05.835Z,33.30
2019-06-15T07:32:05.184Z,33.10
2019-06-15T07:33:08.012Z,32.90
2019-06-15T07:34:07.734Z,33.10
2019-06-15T07:35:06.460Z,33.10
2019-06-15T07:36:08.374Z,33.20
2019-06-15T07:37:08.293Z,33.80
2019-06-15T07:38:05.558Z,33.90
2019-06-15T07:39:05.929Z,33.90
2019-06-15T07:40:05.203Z,34.20
2019-06-15T07:41:13.018Z,34.30
2019-06-15T07:42:07.712Z,34.30
2019-06-15T07:43:08.725Z,34.70
2019-06-15T07:44:05.935Z,34.70
2019-06-15T07:45:08.166Z,35.10
2019-06-15T07:46:05.211Z,35.10
2019-06-15T07:47:05.704Z,35.40
2019-06-15T07:48:06.131Z,35.50
2019-06-15T07:49:05.507Z,36.00
2019-06-15T07:50:05.821Z,36.20
2019-06-15T07:51:06.101Z,36.20
2019-06-15T07:52:08.068Z,36.60
2019-06-15T07:53:07.641Z,36.70
2019-06-15T07:54:08.217Z,36.90
2019-06-15T07:55:07.859Z,37.00
2019-06-15T07:56:08.659Z,36.70
2019-06-15T07:57:05.901Z,36.70
2019-06-15T07:58:05.084Z,36.00
2019-06-15T07:59:08.041Z,35.20
2019-06-15T08:00:07.817Z,35.10
2019-06-15T08:01:05.966Z,35.00
2019-06-15T08:02:05.247Z,35.10
2019-06-15T08:03:05.685Z,35.50
2019-06-15T08:04:05.926Z,35.70
2019-06-15T08:05:05.717Z,36.50
2019-06-15T08:06:08.708Z,36.00
2019-06-15T08:07:08.256Z,35.90
2019-06-15T08:08:05.450Z,35.90
2019-06-15T08:09:08.478Z,36.20
2019-06-15T08:10:05.581Z,36.30
2019-06-15T08:11:08.420Z,36.00
2019-06-15T08:12:08.205Z,36.20
2019-06-15T08:13:05.565Z,36.20
2019-06-15T08:14:11.075Z,36.80
2019-06-15T08:15:07.864Z,36.60
2019-06-15T08:16:06.116Z,36.60
2019-06-15T08:17:05.454Z,36.30
2019-06-15T08:18:05.928Z,35.60
2019-06-15T08:19:07.796Z,36.30
2019-06-15T08:20:08.378Z,35.90
2019-06-15T08:21:08.088Z,35.20
2019-06-15T08:22:07.839Z,34.60
2019-06-15T08:23:06.341Z,34.60
2019-06-15T08:24:08.339Z,34.50
2019-06-15T08:25:08.203Z,34.40
2019-06-15T08:26:05.376Z,34.50
2019-06-15T08:27:06.060Z,33.50
2019-06-15T08:28:05.238Z,33.10
2019-06-15T08:29:08.151Z,32.70
2019-06-15T08:30:07.789Z,32.80
2019-06-15T08:31:08.621Z,33.00
2019-06-15T08:32:08.425Z,32.70
2019-06-15T08:33:05.804Z,32.60
2019-06-15T08:34:06.034Z,32.40
2019-06-15T08:35:07.914Z,32.30
2019-06-15T08:36:06.081Z,32.30
2019-06-15T08:37:10.341Z,32.30
2019-06-15T08:38:08.208Z,32.50
2019-06-15T08:39:05.366Z,32.50
2019-06-15T08:40:08.407Z,33.10
2019-06-15T08:41:05.447Z,33.10
2019-06-15T08:42:08.338Z,33.10
2019-06-15T08:43:05.475Z,33.10
2019-06-15T08:44:10.873Z,33.20
2019-06-15T08:45:05.666Z,33.00
2019-06-15T08:46:08.565Z,33.10
2019-06-15T08:47:05.826Z,33.10
2019-06-15T08:48:07.915Z,33.00
2019-06-15T08:49:08.672Z,33.10
2019-06-15T08:50:08.518Z,33.20
2019-06-15T08:51:10.650Z,32.90
2019-06-15T08:52:08.371Z,32.90
2019-06-15T08:53:05.438Z,32.90
2019-06-15T08:54:05.794Z,32.90
2019-06-15T08:55:06.341Z,33.30
2019-06-15T08:56:08.114Z,33.30
2019-06-15T08:57:05.155Z,33.30
2019-06-15T08:58:08.150Z,33.60
2019-06-15T08:59:07.994Z,34.00
2019-06-15T09:00:05.048Z,34.00
2019-06-15T09:01:05.217Z,34.40
2019-06-15T09:02:05.462Z,34.40
2019-06-15T09:03:05.723Z,34.70
2019-06-15T09:04:06.090Z,34.20
2019-06-15T09:05:07.746Z,32.70
2019-06-15T09:06:11.115Z,31.60
2019-06-15T09:07:10.498Z,32.00
2019-06-15T09:08:05.745Z,32.10
2019-06-15T09:09:06.006Z,31.80
2019-06-15T09:10:07.657Z,32.60
2019-06-15T09:11:08.331Z,32.20
2019-06-15T09:12:10.624Z,32.20
2019-06-15T09:13:05.753Z,32.10
2019-06-15T09:14:06.138Z,33.00
2019-06-15T09:15:07.911Z,33.60
2019-06-15T09:16:06.122Z,33.60
2019-06-15T09:17:07.800Z,32.70
2019-06-15T09:18:06.066Z,32.70
2019-06-15T09:19:07.901Z,33.10
2019-06-15T09:20:08.758Z,33.10
2019-06-15T09:21:08.447Z,32.80
2019-06-15T09:22:05.518Z,32.80
2019-06-15T09:23:05.891Z,32.60
2019-06-15T09:24:05.117Z,32.10
2019-06-15T09:25:05.291Z,32.10
2019-06-15T09:26:08.320Z,32.50
2019-06-15T09:27:05.415Z,32.50
2019-06-15T09:28:08.227Z,32.60
2019-06-15T09:29:11.932Z,32.10
2019-06-15T09:30:05.165Z,32.50
2019-06-15T09:31:06.066Z,32.50
2019-06-15T09:32:05.219Z,32.30
2019-06-15T09:33:05.527Z,32.90
2019-06-15T09:34:19.535Z,32.90
2019-06-15T09:35:08.361Z,33.10
2019-06-15T09:36:08.179Z,32.50
2019-06-15T09:37:05.363Z,32.50
2019-06-15T09:38:05.721Z,32.50
2019-06-15T09:39:05.932Z,32.50
2019-06-15T09:40:05.266Z,32.00
2019-06-15T09:41:05.840Z,32.10
2019-06-15T09:42:05.031Z,32.10
2019-06-15T09:43:05.228Z,32.40
2019-06-15T09:44:05.421Z,32.60
2019-06-15T09:45:05.317Z,32.70
2019-06-15T09:46:05.694Z,32.40
2019-06-15T09:47:06.204Z,31.70
2019-06-15T09:48:05.525Z,31.10
2019-06-15T09:49:05.916Z,31.40
2019-06-15T09:50:05.307Z,31.30
2019-06-15T09:51:10.786Z,31.80
2019-06-15T09:52:08.511Z,31.20
2019-06-15T09:53:05.774Z,31.10
2019-06-15T09:54:08.805Z,31.70
2019-06-15T09:55:05.924Z,31.70
2019-06-15T09:56:05.083Z,32.20
2019-06-15T09:57:07.770Z,33.00
2019-06-15T09:58:08.423Z,32.90
2019-06-15T09:59:05.561Z,32.80
2019-06-15T10:00:05.987Z,32.20
2019-06-15T10:01:05.269Z,32.20
2019-06-15T10:02:07.990Z,32.20
2019-06-15T10:03:06.141Z,32.20
2019-06-15T10:04:07.894Z,31.90
2019-06-15T10:05:08.678Z,31.70
2019-06-15T10:06:06.047Z,31.70
2019-06-15T10:07:05.573Z,31.90
2019-06-15T10:08:08.350Z,32.40
2019-06-15T10:09:05.653Z,32.40
2019-06-15T10:10:08.657Z,33.20
2019-06-15T10:11:05.742Z,33.20
2019-06-15T10:12:06.335Z,33.30
2019-06-15T10:13:08.252Z,33.10
2019-06-15T10:14:07.960Z,32.90
2019-06-15T10:15:08.599Z,33.10
2019-06-15T10:16:08.216Z,33.20
2019-06-15T10:17:10.310Z,33.20
2019-06-15T10:18:07.838Z,32.50
2019-06-15T10:19:05.988Z,32.50
2019-06-15T10:20:05.162Z,32.40
2019-06-15T10:21:07.966Z,32.10
2019-06-15T10:22:08.898Z,32.90
2019-06-15T10:23:06.100Z,33.00
2019-06-15T10:24:05.297Z,33.00
2019-06-15T10:25:08.293Z,33.10
2019-06-15T10:26:05.403Z,33.20
2019-06-15T10:27:05.773Z,33.30
2019-06-15T10:28:08.721Z,33.60
2019-06-15T10:29:06.044Z,33.60
2019-06-15T10:30:05.227Z,33.00
2019-06-15T10:31:07.884Z,32.30
2019-06-15T10:32:05.976Z,32.20
2019-06-15T10:33:05.203Z,32.00
2019-06-15T10:34:05.436Z,31.90
2019-06-15T10:35:08.438Z,32.50
2019-06-15T10:36:10.116Z,32.40
2019-06-15T10:37:05.211Z,32.50
2019-06-15T10:38:05.356Z,32.50
2019-06-15T10:39:08.157Z,32.50
2019-06-15T10:40:05.244Z,32.50
2019-06-15T10:41:05.437Z,32.40
2019-06-15T10:42:05.699Z,32.30
2019-06-15T10:43:05.990Z,32.00
2019-06-15T10:44:05.486Z,32.10
2019-06-15T10:45:05.912Z,32.50
2019-06-15T10:46:05.220Z,32.70
2019-06-15T10:47:10.747Z,32.60
2019-06-15T10:48:05.898Z,32.60
2019-06-15T10:49:07.494Z,32.40
2019-06-15T10:50:05.639Z,32.30
2019-06-15T10:51:08.799Z,32.00
2019-06-15T10:52:05.669Z,32.10
2019-06-15T10:53:08.523Z,32.00
2019-06-15T10:54:05.766Z,32.10
2019-06-15T10:55:06.258Z,32.50
2019-06-15T10:56:08.286Z,32.60
2019-06-15T10:57:10.682Z,32.80
2019-06-15T10:58:08.743Z,32.80
2019-06-15T10:59:06.466Z,32.80
2019-06-15T11:00:05.727Z,32.20
2019-06-15T11:01:06.426Z,32.30
2019-06-15T11:02:05.674Z,32.20
2019-06-15T11:03:06.276Z,32.20
2019-06-15T11:04:05.638Z,32.30
2019-06-15T11:05:06.037Z,32.50
2019-06-15T11:06:08.176Z,32.00
2019-06-15T11:07:08.442Z,32.10
2019-06-15T11:08:06.103Z,32.10
2019-06-15T11:09:11.022Z,32.90
2019-06-15T11:10:05.285Z,33.00
2019-06-15T11:11:11.324Z,32.70
2019-06-15T11:12:06.027Z,32.70
2019-06-15T11:13:05.784Z,33.20
2019-06-15T11:14:05.493Z,32.90
2019-06-15T11:15:08.738Z,32.00
2019-06-15T11:16:06.187Z,32.00
2019-06-15T11:17:08.729Z,31.70
2019-06-15T11:18:08.949Z,31.70
2019-06-15T11:19:07.714Z,31.50
2019-06-15T11:20:06.081Z,31.40
2019-06-15T11:21:05.503Z,31.60
2019-06-15T11:22:06.185Z,31.40
2019-06-15T11:23:08.094Z,31.50
2019-06-15T11:24:05.487Z,31.60
2019-06-15T11:25:06.084Z,31.90
2019-06-15T11:26:10.783Z,32.00
2019-06-15T11:27:06.555Z,32.00
2019-06-15T11:28:08.881Z,32.20
2019-06-15T11:29:06.788Z,32.00
2019-06-15T11:30:14.796Z,31.70
2019-06-15T11:31:08.035Z,32.10
2019-06-15T11:32:07.858Z,31.70
2019-06-15T11:33:14.011Z,31.80
2019-06-15T11:34:05.551Z,31.90
2019-06-15T11:35:06.438Z,31.50
2019-06-15T11:36:06.147Z,31.00
2019-06-15T11:37:11.025Z,31.10
2019-06-15T11:38:08.882Z,31.30
2019-06-15T11:39:06.421Z,31.30
2019-06-15T11:40:06.322Z,31.50
2019-06-15T11:41:08.574Z,31.70
2019-06-15T11:42:06.054Z,31.70
2019-06-15T11:43:08.350Z,31.70
2019-06-15T11:44:05.890Z,31.70
2019-06-15T11:45:08.161Z,31.50
2019-06-15T11:46:05.291Z,31.50
2019-06-15T11:47:05.603Z,31.20
2019-06-15T11:48:08.543Z,31.40
2019-06-15T11:49:05.775Z,31.40
2019-06-15T11:50:12.325Z,31.80
2019-06-15T11:51:05.327Z,31.80
2019-06-15T11:52:05.461Z,31.70
2019-06-15T11:53:05.967Z,31.60
2019-06-15T11:54:05.449Z,31.70
2019-06-15T11:55:10.993Z,31.60
2019-06-15T11:56:07.527Z,32.00
2019-06-15T11:57:08.052Z,32.00
2019-06-15T11:58:10.246Z,32.40
2019-06-15T11:59:05.298Z,32.40
2019-06-15T12:00:08.498Z,32.30
2019-06-15T12:01:08.442Z,32.70
2019-06-15T12:02:05.526Z,32.70
2019-06-15T12:03:05.958Z,32.50
2019-06-15T12:04:05.156Z,33.00
2019-06-15T12:05:05.389Z,33.60
2019-06-15T12:06:05.793Z,34.10
2019-06-15T12:07:06.420Z,33.80
2019-06-15T12:08:05.898Z,33.70
2019-06-15T12:09:05.243Z,33.50
2019-06-15T12:10:05.522Z,33.60
2019-06-15T12:11:05.881Z,33.80
2019-06-15T12:12:05.461Z,34.30
2019-06-15T12:13:06.175Z,33.30
2019-06-15T12:14:05.620Z,32.20
2019-06-15T12:15:11.386Z,32.40
2019-06-15T12:16:05.737Z,32.30
2019-06-15T12:17:06.347Z,30.70
2019-06-15T12:18:05.745Z,30.40
2019-06-15T12:19:08.642Z,31.40
2019-06-15T12:20:06.165Z,31.40
2019-06-15T12:21:05.530Z,32.00
2019-06-15T12:22:08.547Z,32.30
2019-06-15T12:23:05.711Z,32.30
2019-06-15T12:24:05.913Z,31.70
2019-06-15T12:25:05.182Z,31.10
2019-06-15T12:26:05.384Z,30.20
2019-06-15T12:27:08.336Z,30.30
2019-06-15T12:28:07.978Z,31.10
2019-06-15T12:29:08.204Z,31.10
2019-06-15T12:30:05.620Z,30.90
2019-06-15T12:31:05.819Z,31.10
2019-06-15T12:32:05.974Z,31.10
2019-06-15T12:33:05.185Z,31.40
2019-06-15T12:34:05.604Z,30.90
2019-06-15T12:35:08.565Z,31.30
2019-06-15T12:36:19.702Z,31.30
2019-06-15T12:37:11.183Z,30.20
2019-06-15T12:38:05.297Z,30.10
2019-06-15T12:39:05.719Z,29.80
2019-06-15T12:40:06.259Z,29.90
2019-06-15T12:41:08.090Z,30.10
2019-06-15T12:42:05.388Z,30.00
2019-06-15T12:43:05.855Z,29.70
2019-06-15T12:44:07.534Z,29.70
2019-06-15T12:45:08.373Z,29.50
2019-06-15T12:46:08.253Z,29.30
2019-06-15T12:47:10.396Z,29.30
2019-06-15T12:48:08.228Z,29.70
2019-06-15T12:49:05.206Z,29.70
2019-06-15T12:50:05.380Z,29.90
2019-06-15T12:51:13.308Z,30.90
2019-06-15T12:52:07.972Z,30.50